createdAt,value
2022-12-04T00:00:14.213Z,6.41
2022-12-04T00:02:41.688Z,6.36
2022-12-04T00:05:10.001Z,6.41
2022-12-04T00:07:37.347Z,6.43
2022-12-04T00:10:05.032Z,6.33
2022-12-04T00:12:32.087Z,6.24
2022-12-04T00:17:49.250Z,6.24
2022-12-04T00:20:16.190Z,6.35
2022-12-04T00:22:43.022Z,6.26
2022-12-04T00:25:10.048Z,6.16
2022-12-04T00:27:36.912Z,6.21
2022-12-04T00:30:04.598Z,6.21
2022-12-04T00:32:31.491Z,6.18
2022-12-04T00:34:58.508Z,6.22
2022-12-04T00:37:25.346Z,6.31
2022-12-04T00:39:52.492Z,6.24
2022-12-04T00:42:19.506Z,6.21
2022-12-04T00:44:46.475Z,6.12
2022-12-04T00:47:13.302Z,6.11
2022-12-04T00:49:40.115Z,6.10
2022-12-04T00:52:06.946Z,6.18
2022-12-04T00:54:34.027Z,6.15
2022-12-04T00:57:00.823Z,6.08
2022-12-04T00:59:27.684Z,5.96
2022-12-04T01:01:54.540Z,6.08
2022-12-04T01:04:21.430Z,6.18
2022-12-04T01:06:48.471Z,6.31
2022-12-04T01:09:15.320Z,6.21
2022-12-04T01:11:42.233Z,6.15
2022-12-04T01:14:09.106Z,6.14
2022-12-04T01:16:38.543Z,6.00
2022-12-04T01:19:08.821Z,6.04
2022-12-04T01:21:37.512Z,6.20
2022-12-04T01:24:04.994Z,6.08
2022-12-04T01:26:31.865Z,6.08
2022-12-04T01:28:59.198Z,6.15
2022-12-04T01:31:26.211Z,6.22
2022-12-04T01:33:53.457Z,6.22
2022-12-04T01:36:26.166Z,6.24
2022-12-04T01:38:53.513Z,6.22
2022-12-04T01:41:23.640Z,6.21
2022-12-04T01:44:14.517Z,6.11
2022-12-04T01:46:43.198Z,6.11
2022-12-04T01:49:15.685Z,6.17
2022-12-04T01:51:51.845Z,6.17
2022-12-04T01:54:28.748Z,5.98
2022-12-04T01:57:06.140Z,5.98
2022-12-04T01:59:38.851Z,5.99
2022-12-04T02:02:11.489Z,6.11
2022-12-04T02:04:40.868Z,6.06
2022-12-04T02:07:07.834Z,6.07
2022-12-04T02:09:37.211Z,6.07
2022-12-04T02:12:16.722Z,6.18
2022-12-04T02:14:46.474Z,5.98
2022-12-04T02:17:32.638Z,6.08
2022-12-04T02:20:20.907Z,6.12
2022-12-04T02:23:09.457Z,6.08
2022-12-04T02:25:55.149Z,5.94
2022-12-04T02:28:24.941Z,5.98
2022-12-04T02:30:57.721Z,6.03
2022-12-04T02:33:33.557Z,6.11
2022-12-04T02:36:08.722Z,6.10
2022-12-04T02:38:40.698Z,6.15
2022-12-04T02:41:31.833Z,6.08
2022-12-04T02:44:05.039Z,6.01
2022-12-04T02:46:38.620Z,5.96
2022-12-04T02:49:11.797Z,6.05
2022-12-04T02:51:41.456Z,6.07
2022-12-04T02:54:18.332Z,6.07
2022-12-04T02:56:47.728Z,5.89
2022-12-04T02:59:20.456Z,6.03
2022-12-04T03:01:51.722Z,6.10
2022-12-04T03:04:22.388Z,6.02
2022-12-04T03:06:55.204Z,5.97
2022-12-04T03:09:24.449Z,6.08
2022-12-04T03:12:01.391Z,6.06
2022-12-04T03:14:34.562Z,5.98
2022-12-04T03:17:09.762Z,6.01
2022-12-04T03:19:45.744Z,5.97
2022-12-04T03:22:16.651Z,5.99
2022-12-04T03:24:52.230Z,5.98
2022-12-04T03:27:38.454Z,5.87
2022-12-04T03:30:19.046Z,6.04
2022-12-04T03:32:55.576Z,5.98
2022-12-04T03:35:42.677Z,5.97
2022-12-04T03:38:35.765Z,5.99
2022-12-04T03:41:15.237Z,6.11
2022-12-04T03:43:45.024Z,6.05
2022-12-04T03:46:16.712Z,6.07
2022-12-04T03:48:52.679Z,6.14
2022-12-04T03:51:31.898Z,6.12
2022-12-04T03:54:24.221Z,6.10
2022-12-04T03:56:56.382Z,6.05
2022-12-04T03:59:55.862Z,6.08
2022-12-04T04:02:28.053Z,6.12
2022-12-04T04:04:59.451Z,6.14
2022-12-04T04:07:35.907Z,6.12
2022-12-04T04:10:11.409Z,6.12
2022-12-04T04:12:44.191Z,6.03
2022-12-04T04:15:35.852Z,6.10
2022-12-04T04:18:21.457Z,6.10
2022-12-04T04:21:14.448Z,6.09
2022-12-04T04:24:07.675Z,6.21
2022-12-04T04:26:42.200Z,6.15
2022-12-04T04:29:09.989Z,6.11
2022-12-04T04:32:08.836Z,6.04
2022-12-04T04:34:46.825Z,6.10
2022-12-04T04:37:51.039Z,6.19
2022-12-04T04:40:42.190Z,6.20
2022-12-04T04:43:40.012Z,6.24
2022-12-04T04:46:21.742Z,6.19
2022-12-04T04:48:52.988Z,6.07
2022-12-04T04:51:20.791Z,6.04
2022-12-04T04:53:59.445Z,6.15
2022-12-04T04:56:26.808Z,6.26
2022-12-04T04:58:53.748Z,6.26
2022-12-04T05:01:24.416Z,6.18
2022-12-04T05:03:51.426Z,6.18
2022-12-04T05:06:18.322Z,6.21
2022-12-04T05:08:45.556Z,6.13
2022-12-04T05:11:14.560Z,6.22
2022-12-04T05:13:41.882Z,6.17
2022-12-04T05:16:12.626Z,6.15
2022-12-04T05:18:40.362Z,6.18
2022-12-04T05:21:16.878Z,6.08
2022-12-04T05:23:44.188Z,6.15
2022-12-04T05:26:11.268Z,6.16
2022-12-04T05:28:39.692Z,6.08
2022-12-04T05:31:06.803Z,6.03
2022-12-04T05:33:33.671Z,5.98
2022-12-04T05:36:03.912Z,5.93
2022-12-04T05:38:31.452Z,5.97
2022-12-04T05:41:02.854Z,6.02
2022-12-04T05:43:30.054Z,6.12
2022-12-04T05:46:02.330Z,6.06
2022-12-04T05:48:29.092Z,6.04
2022-12-04T05:50:56.091Z,5.98
2022-12-04T05:53:23.151Z,5.98
2022-12-04T05:56:01.340Z,5.92
2022-12-04T05:58:28.623Z,5.96
2022-12-04T06:00:55.748Z,5.89
2022-12-04T06:03:23.487Z,5.95
2022-12-04T06:05:50.434Z,5.87
2022-12-04T06:08:17.395Z,5.84
2022-12-04T06:10:44.343Z,5.88
2022-12-04T06:13:11.621Z,5.93
2022-12-04T06:15:40.100Z,5.77
2022-12-04T06:18:07.493Z,5.87
2022-12-04T06:20:34.796Z,5.81
2022-12-04T06:23:01.955Z,5.83
2022-12-04T06:25:29.640Z,5.85
2022-12-04T06:27:56.528Z,5.95
2022-12-04T06:30:23.555Z,6.09
2022-12-04T06:32:50.451Z,6.02
2022-12-04T06:35:17.409Z,5.99
2022-12-04T06:37:44.300Z,5.97
2022-12-04T06:40:11.564Z,5.89
2022-12-04T06:42:38.719Z,5.94
2022-12-04T06:45:06.651Z,5.97
2022-12-04T06:47:35.737Z,5.92
2022-12-04T06:50:03.576Z,6.04
2022-12-04T06:52:34.986Z,6.07
2022-12-04T06:55:01.907Z,5.96
2022-12-04T06:57:28.843Z,6.06
2022-12-04T06:59:55.803Z,6.09
2022-12-04T07:02:23.114Z,6.11
2022-12-04T07:04:50.046Z,6.12
2022-12-04T07:07:16.936Z,6.23
2022-12-04T07:09:44.399Z,6.16
2022-12-04T07:12:11.301Z,6.40
2022-12-04T07:14:38.316Z,6.28
2022-12-04T07:17:05.188Z,6.32
2022-12-04T07:19:32.149Z,6.30
2022-12-04T07:21:59.029Z,6.31
2022-12-04T07:24:25.825Z,6.42
2022-12-04T07:26:52.786Z,6.47
2022-12-04T07:31:46.582Z,6.55
2022-12-04T07:34:13.584Z,6.47
2022-12-04T07:36:41.002Z,6.53
2022-12-04T07:39:07.860Z,6.52
2022-12-04T07:41:35.389Z,6.51
2022-12-04T07:44:06.699Z,6.54
2022-12-04T07:46:33.593Z,6.63
2022-12-04T07:49:00.452Z,6.61
2022-12-04T07:51:29.535Z,6.62
2022-12-04T07:54:02.847Z,6.66
2022-12-04T07:56:30.927Z,6.78
2022-12-04T07:58:57.794Z,6.73
2022-12-04T08:01:25.080Z,6.70
2022-12-04T08:03:55.369Z,6.79
2022-12-04T08:06:24.492Z,6.76
2022-12-04T08:08:52.424Z,6.82
2022-12-04T08:11:22.538Z,6.83
2022-12-04T08:13:57.407Z,6.90
2022-12-04T08:16:25.365Z,6.72
2022-12-04T08:18:53.721Z,6.95
2022-12-04T08:21:23.675Z,7.01
2022-12-04T08:23:52.666Z,7.06
2022-12-04T08:26:21.800Z,7.08
2022-12-04T08:28:49.315Z,7.13
2022-12-04T08:31:21.871Z,7.56
2022-12-04T08:33:51.601Z,7.82
2022-12-04T08:36:20.830Z,8.04
2022-12-04T08:38:48.748Z,7.96
2022-12-04T08:41:18.477Z,8.09
2022-12-04T08:43:45.376Z,8.02
2022-12-04T08:46:15.199Z,7.97
2022-12-04T08:48:42.831Z,7.97
2022-12-04T08:51:18.273Z,7.92
2022-12-04T08:53:45.996Z,7.84
2022-12-04T08:56:13.318Z,7.93
2022-12-04T08:58:40.707Z,8.02
2022-12-04T09:01:13.006Z,7.95
2022-12-04T09:03:40.595Z,7.98
2022-12-04T09:06:09.532Z,7.87
2022-12-04T09:08:37.050Z,7.91
2022-12-04T09:11:16.476Z,7.97
2022-12-04T09:13:44.718Z,7.91
2022-12-04T09:16:18.208Z,7.77
2022-12-04T09:18:46.471Z,7.68
2022-12-04T09:21:15.793Z,7.66
2022-12-04T09:23:43.237Z,7.81
2022-12-04T09:26:23.010Z,7.69
2022-12-04T09:28:50.918Z,7.70
2022-12-04T09:31:19.034Z,7.70
2022-12-04T09:33:46.105Z,7.62
2022-12-04T09:36:16.379Z,7.81
2022-12-04T09:38:49.040Z,7.78
2022-12-04T09:41:18.896Z,7.81
2022-12-04T09:43:57.969Z,7.72
2022-12-04T09:46:28.694Z,7.82
2022-12-04T09:48:58.683Z,7.62
2022-12-04T09:51:26.415Z,7.57
2022-12-04T09:54:00.297Z,7.53
2022-12-04T09:56:30.674Z,7.60
2022-12-04T09:59:07.593Z,7.68
2022-12-04T10:01:46.334Z,7.74
2022-12-04T10:04:13.913Z,7.78
2022-12-04T10:06:50.089Z,7.72
2022-12-04T10:09:21.121Z,7.67
2022-12-04T10:12:08.037Z,7.66
2022-12-04T10:15:02.355Z,7.72
2022-12-04T10:17:40.211Z,7.81
2022-12-04T10:20:29.981Z,7.83
2022-12-04T10:23:15.647Z,7.89
2022-12-04T10:25:43.915Z,8.00
2022-12-04T10:28:23.553Z,7.96
2022-12-04T10:30:53.260Z,7.91
2022-12-04T10:33:33.358Z,7.92
2022-12-04T10:36:02.819Z,7.88
2022-12-04T10:38:44.145Z,7.97
2022-12-04T10:41:29.706Z,8.11
2022-12-04T10:43:57.327Z,8.03
2022-12-04T10:46:30.252Z,7.94
2022-12-04T10:49:06.964Z,7.85
2022-12-04T10:51:42.764Z,8.02
2022-12-04T10:54:34.095Z,7.91
2022-12-04T10:57:07.500Z,7.88
2022-12-04T10:59:35.507Z,7.93
2022-12-04T11:02:11.848Z,7.94
2022-12-04T11:04:42.060Z,7.98
2022-12-04T11:07:20.891Z,7.96
2022-12-04T11:10:01.618Z,8.17
2022-12-04T11:12:29.352Z,8.11
2022-12-04T11:15:01.593Z,8.27
2022-12-04T11:17:29.300Z,8.22
2022-12-04T11:20:09.578Z,8.27
2022-12-04T11:22:56.991Z,8.15
2022-12-04T11:25:28.349Z,8.29
2022-12-04T11:28:00.065Z,8.25
2022-12-04T11:30:34.646Z,8.27
2022-12-04T11:33:04.851Z,8.18
2022-12-04T11:35:33.038Z,8.24
2022-12-04T11:38:09.416Z,8.24
2022-12-04T11:40:37.509Z,8.24
2022-12-04T11:43:06.632Z,8.27
2022-12-04T11:45:34.056Z,8.28
2022-12-04T11:48:05.285Z,8.26
2022-12-04T11:51:01.908Z,8.15
2022-12-04T11:53:47.490Z,8.18
2022-12-04T11:56:20.888Z,8.24
2022-12-04T11:59:25.826Z,8.30
2022-12-04T12:02:14.501Z,8.45
2022-12-04T12:05:00.963Z,8.37
2022-12-04T12:07:39.800Z,8.28
2022-12-04T12:10:22.617Z,8.20
2022-12-04T12:13:04.699Z,8.11
2022-12-04T12:16:08.794Z,8.09
2022-12-04T12:19:00.881Z,8.19
2022-12-04T12:22:08.003Z,8.20
2022-12-04T12:25:02.404Z,8.22
2022-12-04T12:28:02.712Z,8.19
2022-12-04T12:30:45.055Z,8.24
2022-12-04T12:33:26.692Z,8.05
2022-12-04T12:36:11.955Z,8.00
2022-12-04T12:38:47.088Z,8.02
2022-12-04T12:41:20.365Z,8.06
2022-12-04T12:43:56.991Z,8.01
2022-12-04T12:46:30.780Z,7.97
2022-12-04T12:49:03.833Z,7.87
2022-12-04T12:52:00.532Z,7.87
2022-12-04T12:54:41.249Z,7.92
2022-12-04T12:57:36.665Z,7.96
2022-12-04T13:00:06.568Z,7.99
2022-12-04T13:02:41.507Z,7.96
2022-12-04T13:05:13.387Z,8.01
2022-12-04T13:08:11.551Z,8.02
2022-12-04T13:10:46.104Z,8.01
2022-12-04T13:13:32.758Z,8.07
2022-12-04T13:16:05.958Z,8.10
2022-12-04T13:18:46.225Z,8.11
2022-12-04T13:21:26.645Z,8.15
2022-12-04T13:24:16.225Z,8.18
2022-12-04T13:27:26.694Z,8.14
2022-12-04T13:30:29.729Z,8.19
2022-12-04T13:33:08.454Z,8.06
2022-12-04T13:35:54.768Z,8.09
2022-12-04T13:38:25.524Z,7.94
2022-12-04T13:40:58.983Z,7.99
2022-12-04T13:43:35.673Z,8.15
2022-12-04T13:46:21.679Z,7.95
2022-12-04T13:48:49.741Z,7.94
2022-12-04T13:51:36.191Z,7.95
2022-12-04T13:54:13.218Z,7.87
2022-12-04T13:56:46.026Z,7.82
2022-12-04T13:59:30.623Z,7.97
2022-12-04T14:02:07.999Z,7.94
2022-12-04T14:04:52.416Z,7.93
2022-12-04T14:07:35.144Z,7.91
2022-12-04T14:10:06.661Z,7.88
2022-12-04T14:12:39.936Z,7.90
2022-12-04T14:15:21.283Z,7.89
2022-12-04T14:18:07.294Z,7.91
2022-12-04T14:20:36.336Z,7.80
2022-12-04T14:23:27.577Z,7.77
2022-12-04T14:25:58.924Z,7.79
2022-12-04T14:28:33.924Z,7.87
2022-12-04T14:31:32.585Z,7.79
2022-12-04T14:34:27.208Z,7.81
2022-12-04T14:36:56.785Z,7.78
2022-12-04T14:39:41.801Z,7.75
2022-12-04T14:42:18.230Z,7.78
2022-12-04T14:44:46.678Z,7.77
2022-12-04T14:47:38.510Z,7.77
2022-12-04T14:50:47.428Z,7.78
2022-12-04T14:53:42.097Z,7.81
2022-12-04T14:56:21.109Z,7.83
2022-12-04T14:58:48.191Z,7.82
2022-12-04T15:01:18.098Z,7.80
2022-12-04T15:03:48.259Z,7.85
2022-12-04T15:06:27.396Z,7.81
2022-12-04T15:09:20.928Z,7.78
2022-12-04T15:12:15.703Z,7.81
2022-12-04T15:14:44.034Z,7.77
2022-12-04T15:17:13.012Z,7.74
2022-12-04T15:19:40.360Z,7.72
2022-12-04T15:22:21.136Z,7.74
2022-12-04T15:24:48.202Z,7.65
2022-12-04T15:27:17.411Z,7.63
2022-12-04T15:29:48.476Z,7.60
2022-12-04T15:32:19.789Z,7.62
2022-12-04T15:34:51.922Z,7.68
2022-12-04T15:37:30.836Z,7.76
2022-12-04T15:39:59.350Z,7.73
2022-12-04T15:42:30.873Z,7.72
2022-12-04T15:45:01.720Z,7.74
2022-12-04T15:47:37.377Z,7.72
2022-12-04T15:50:20.740Z,7.71
2022-12-04T15:52:51.200Z,7.61
2022-12-04T15:55:19.489Z,7.57
2022-12-04T15:57:54.256Z,7.61
2022-12-04T16:00:34.224Z,7.52
2022-12-04T16:03:01.311Z,7.53
2022-12-04T16:05:35.049Z,7.49
2022-12-04T16:08:24.099Z,7.56
2022-12-04T16:11:03.962Z,7.43
2022-12-04T16:13:34.391Z,7.42
2022-12-04T16:16:05.598Z,7.37
2022-12-04T16:18:32.807Z,7.45
2022-12-04T16:21:00.450Z,7.36
2022-12-04T16:23:27.487Z,7.29
2022-12-04T16:25:54.534Z,7.31
2022-12-04T16:28:21.632Z,7.26
2022-12-04T16:30:51.648Z,7.21
2022-12-04T16:33:18.975Z,7.14
2022-12-04T16:35:45.861Z,7.00
2022-12-04T16:38:17.171Z,7.06
2022-12-04T16:40:46.011Z,7.09
2022-12-04T16:43:14.945Z,7.05
2022-12-04T16:46:02.109Z,7.04
2022-12-04T16:48:32.165Z,7.07
2022-12-04T16:50:58.988Z,7.03
2022-12-04T16:53:25.899Z,7.11
2022-12-04T16:55:53.282Z,7.13
2022-12-04T16:58:20.703Z,7.32
2022-12-04T17:00:54.990Z,7.24
2022-12-04T17:03:28.740Z,7.11
2022-12-04T17:05:56.504Z,7.10
2022-12-04T17:08:23.841Z,7.18
2022-12-04T17:10:51.203Z,7.18
2022-12-04T17:13:19.921Z,7.05
2022-12-04T17:15:46.970Z,7.12
2022-12-04T17:18:19.284Z,7.05
2022-12-04T17:20:47.879Z,6.94
2022-12-04T17:23:14.842Z,6.95
2022-12-04T17:25:42.100Z,6.91
2022-12-04T17:28:09.114Z,6.83
2022-12-04T17:30:36.608Z,6.90
2022-12-04T17:33:04.934Z,6.95
2022-12-04T17:35:32.174Z,7.13
2022-12-04T17:38:05.451Z,7.00
2022-12-04T17:40:32.852Z,6.96
2022-12-04T17:43:00.065Z,6.94
2022-12-04T17:45:27.039Z,6.80
2022-12-04T17:47:53.869Z,6.87
2022-12-04T17:50:20.856Z,6.88
2022-12-04T17:52:48.412Z,6.91
2022-12-04T17:55:15.329Z,6.95
2022-12-04T17:57:42.177Z,6.87
2022-12-04T18:00:10.172Z,6.90
2022-12-04T18:02:41.641Z,6.90
2022-12-04T18:05:09.906Z,6.93
2022-12-04T18:07:36.885Z,7.04
2022-12-04T18:10:04.061Z,7.09
2022-12-04T18:12:31.006Z,7.11
2022-12-04T18:14:57.927Z,7.08
2022-12-04T18:17:24.880Z,6.98
2022-12-04T18:19:51.691Z,6.98
2022-12-04T18:22:18.572Z,7.08
2022-12-04T18:24:45.456Z,7.07
2022-12-04T18:27:12.306Z,7.09
2022-12-04T18:29:39.182Z,7.00
2022-12-04T18:32:06.969Z,7.06
2022-12-04T18:34:33.988Z,7.07
2022-12-04T18:37:00.974Z,7.05
2022-12-04T18:39:27.976Z,7.06
2022-12-04T18:41:58.747Z,7.05
2022-12-04T18:44:26.205Z,7.08
2022-12-04T18:46:53.697Z,7.03
2022-12-04T18:49:20.671Z,6.97
2022-12-04T18:51:50.001Z,6.80
2022-12-04T18:54:20.053Z,6.87
2022-12-04T18:56:47.025Z,6.87
2022-12-04T18:59:20.456Z,6.80
2022-12-04T19:01:49.934Z,6.82
2022-12-04T19:04:18.536Z,6.83
2022-12-04T19:06:49.366Z,6.74
2022-12-04T19:09:19.081Z,6.70
2022-12-04T19:11:46.694Z,6.77
2022-12-04T19:14:22.740Z,6.80
2022-12-04T19:16:50.650Z,6.80
2022-12-04T19:19:18.117Z,6.87
2022-12-04T19:21:45.011Z,6.84
2022-12-04T19:24:12.511Z,6.75
2022-12-04T19:26:39.547Z,6.74
2022-12-04T19:29:07.576Z,6.74
2022-12-04T19:31:37.771Z,6.74
2022-12-04T19:34:06.676Z,6.76
2022-12-04T19:36:35.419Z,6.80
2022-12-04T19:39:04.347Z,6.77
2022-12-04T19:41:34.321Z,6.74
2022-12-04T19:44:14.654Z,6.66
2022-12-04T19:46:49.531Z,6.72
2022-12-04T19:49:16.431Z,6.77
2022-12-04T19:51:43.818Z,6.73
2022-12-04T19:54:13.132Z,6.76
2022-12-04T19:56:40.360Z,6.82
2022-12-04T19:59:08.349Z,6.77
2022-12-04T20:01:35.686Z,6.75
2022-12-04T20:04:06.636Z,6.70
2022-12-04T20:06:40.068Z,6.73
2022-12-04T20:09:10.815Z,6.67
2022-12-04T20:11:38.001Z,6.65
2022-12-04T20:14:05.812Z,6.64
2022-12-04T20:16:34.605Z,6.75
2022-12-04T20:19:03.031Z,6.70
2022-12-04T20:21:31.004Z,6.79
2022-12-04T20:24:01.223Z,6.88
2022-12-04T20:26:32.058Z,6.93
2022-12-04T20:29:00.758Z,6.83
2022-12-04T20:31:34.726Z,6.72
2022-12-04T20:34:05.219Z,6.76
2022-12-04T20:36:37.059Z,6.77
2022-12-04T20:39:05.246Z,6.77
2022-12-04T20:41:33.339Z,6.80
2022-12-04T20:44:02.632Z,6.78
2022-12-04T20:46:32.437Z,6.75
2022-12-04T20:49:01.326Z,6.79
2022-12-04T20:51:34.164Z,6.79
2022-12-04T20:54:01.810Z,6.78
2022-12-04T20:56:32.052Z,6.82
2022-12-04T20:59:01.501Z,6.76
2022-12-04T21:01:29.160Z,6.73
2022-12-04T21:03:58.766Z,6.86
2022-12-04T21:06:34.869Z,6.79
2022-12-04T21:09:08.079Z,6.82
2022-12-04T21:11:47.240Z,6.89
2022-12-04T21:14:39.213Z,6.91
2022-12-04T21:17:09.383Z,6.89
2022-12-04T21:19:36.594Z,6.89
2022-12-04T21:22:03.852Z,6.95
2022-12-04T21:24:36.354Z,6.95
2022-12-04T21:27:03.267Z,6.84
2022-12-04T21:29:30.235Z,6.76
2022-12-04T21:31:57.079Z,6.89
2022-12-04T21:34:24.003Z,6.83
2022-12-04T21:36:50.865Z,6.77
2022-12-04T21:39:17.800Z,6.89
2022-12-04T21:42:02.988Z,6.80
2022-12-04T21:44:29.960Z,6.90
2022-12-04T21:46:56.946Z,6.94
2022-12-04T21:49:25.093Z,6.87
2022-12-04T21:51:59.619Z,6.99
2022-12-04T21:54:29.945Z,7.05
2022-12-04T21:56:57.395Z,6.91
2022-12-04T21:59:25.507Z,6.89
2022-12-04T22:01:53.316Z,6.78
2022-12-04T22:04:20.524Z,6.84
2022-12-04T22:06:47.550Z,6.94
2022-12-04T22:09:14.649Z,6.96
2022-12-04T22:11:42.267Z,6.96
2022-12-04T22:14:10.267Z,7.05
2022-12-04T22:16:41.825Z,6.92
2022-12-04T22:19:10.634Z,6.90
2022-12-04T22:21:37.781Z,6.91
2022-12-04T22:24:05.334Z,6.85
2022-12-04T22:26:32.376Z,6.80
2022-12-04T22:28:59.245Z,6.81
2022-12-04T22:31:28.709Z,6.74
2022-12-04T22:33:57.846Z,6.75
2022-12-04T22:36:27.640Z,6.76
2022-12-04T22:39:11.038Z,6.82
2022-12-04T22:41:38.708Z,6.86
2022-12-04T22:44:06.151Z,6.82
2022-12-04T22:46:33.303Z,6.91
2022-12-04T22:49:00.215Z,6.96
2022-12-04T22:51:27.968Z,6.91
2022-12-04T22:53:57.268Z,6.82
2022-12-04T22:56:28.530Z,6.86
2022-12-04T22:58:56.085Z,6.80
2022-12-04T23:01:25.435Z,6.87
2022-12-04T23:03:53.321Z,6.90
2022-12-04T23:06:21.940Z,6.83
2022-12-04T23:08:48.947Z,6.83
2022-12-04T23:11:18.848Z,6.90
2022-12-04T23:13:51.701Z,6.87
2022-12-04T23:16:20.453Z,6.80
2022-12-04T23:18:48.567Z,6.82
2022-12-04T23:21:16.671Z,6.81
2022-12-04T23:23:44.853Z,6.75
2022-12-04T23:26:17.760Z,6.68
2022-12-04T23:28:44.821Z,6.64
2022-12-04T23:31:11.832Z,6.65
2022-12-04T23:33:40.139Z,6.62
2022-12-04T23:36:09.061Z,6.63
2022-12-04T23:38:37.473Z,6.67
2022-12-04T23:41:11.229Z,6.72
2022-12-04T23:43:39.464Z,6.72
2022-12-04T23:46:10.962Z,6.78
2022-12-04T23:48:40.072Z,6.83
2022-12-04T23:51:07.743Z,6.84
2022-12-04T23:53:35.091Z,6.75
2022-12-04T23:56:10.012Z,6.72
2022-12-04T23:58:36.936Z,6.70
